sensor_id;sensor_type;location;lat;lon;timestamp;P1;durP1;ratioP1;P2;durP2;ratioP2
39846;SDS011;25517;52.422;10.782;2023-11-21T00:00:19;84.05;;;25.42;;
39846;SDS011;25517;52.422;10.782;2023-11-21T00:02:45;93.80;;;27.30;;
39846;SDS011;25517;52.422;10.782;2023-11-21T00:05:11;108.40;;;30.20;;
39846;SDS011;25517;52.422;10.782;2023-11-21T00:07:39;69.55;;;25.88;;
39846;SDS011;25517;52.422;10.782;2023-11-21T00:10:05;119.88;;;32.50;;
39846;SDS011;25517;52.422;10.782;2023-11-21T00:12:31;75.82;;;26.08;;
39846;SDS011;25517;52.422;10.782;2023-11-21T00:14:58;89.53;;;28.55;;
39846;SDS011;25517;52.422;10.782;2023-11-21T00:17:24;62.38;;;25.77;;
39846;SDS011;25517;52.422;10.782;2023-11-21T00:19:49;103.65;;;30.45;;
39846;SDS011;25517;52.422;10.782;2023-11-21T00:22:17;71.43;;;26.05;;
39846;SDS011;25517;52.422;10.782;2023-11-21T00:24:42;95.18;;;28.52;;
39846;SDS011;25517;52.422;10.782;2023-11-21T00:27:08;101.00;;;29.60;;
39846;SDS011;25517;52.422;10.782;2023-11-21T00:29:34;65.70;;;24.58;;
39846;SDS011;25517;52.422;10.782;2023-11-21T00:31:59;73.38;;;26.90;;
39846;SDS011;25517;52.422;10.782;2023-11-21T00:34:25;111.57;;;31.45;;
39846;SDS011;25517;52.422;10.782;2023-11-21T00:36:50;103.53;;;29.15;;
39846;SDS011;25517;52.422;10.782;2023-11-21T00:39:16;72.32;;;25.83;;
39846;SDS011;25517;52.422;10.782;2023-11-21T00:41:41;68.25;;;26.15;;
39846;SDS011;25517;52.422;10.782;2023-11-21T00:44:07;73.22;;;25.73;;
39846;SDS011;25517;52.422;10.782;2023-11-21T00:46:33;97.55;;;28.95;;
39846;SDS011;25517;52.422;10.782;2023-11-21T00:48:58;105.93;;;28.20;;
39846;SDS011;25517;52.422;10.782;2023-11-21T00:51:24;70.80;;;25.92;;
39846;SDS011;25517;52.422;10.782;2023-11-21T00:53:50;79.20;;;24.13;;
39846;SDS011;25517;52.422;10.782;2023-11-21T00:56:15;67.60;;;26.15;;
39846;SDS011;25517;52.422;10.782;2023-11-21T00:58:41;61.83;;;23.40;;
39846;SDS011;25517;52.422;10.782;2023-11-21T01:01:14;70.15;;;25.65;;
39846;SDS011;25517;52.422;10.782;2023-11-21T01:03:40;93.97;;;26.63;;
39846;SDS011;25517;52.422;10.782;2023-11-21T01:06:06;64.00;;;24.55;;
39846;SDS011;25517;52.422;10.782;2023-11-21T01:08:32;63.47;;;25.67;;
39846;SDS011;25517;52.422;10.782;2023-11-21T01:10:57;88.78;;;29.33;;
39846;SDS011;25517;52.422;10.782;2023-11-21T01:13:23;62.22;;;24.25;;
39846;SDS011;25517;52.422;10.782;2023-11-21T01:15:48;80.45;;;27.58;;
39846;SDS011;25517;52.422;10.782;2023-11-21T01:18:14;64.82;;;26.40;;
39846;SDS011;25517;52.422;10.782;2023-11-21T01:20:39;127.10;;;33.05;;
39846;SDS011;25517;52.422;10.782;2023-11-21T01:23:05;89.65;;;30.60;;
39846;SDS011;25517;52.422;10.782;2023-11-21T01:25:31;98.35;;;30.50;;
39846;SDS011;25517;52.422;10.782;2023-11-21T01:27:56;71.13;;;25.88;;
39846;SDS011;25517;52.422;10.782;2023-11-21T01:30:22;93.30;;;27.13;;
39846;SDS011;25517;52.422;10.782;2023-11-21T01:32:47;89.00;;;26.83;;
39846;SDS011;25517;52.422;10.782;2023-11-21T01:35:13;80.45;;;25.75;;
39846;SDS011;25517;52.422;10.782;2023-11-21T01:37:38;61.83;;;24.85;;
39846;SDS011;25517;52.422;10.782;2023-11-21T01:40:04;63.17;;;25.63;;
39846;SDS011;25517;52.422;10.782;2023-11-21T01:42:34;87.40;;;28.77;;
39846;SDS011;25517;52.422;10.782;2023-11-21T01:45:00;71.05;;;27.17;;
39846;SDS011;25517;52.422;10.782;2023-11-21T01:47:30;88.65;;;27.40;;
39846;SDS011;25517;52.422;10.782;2023-11-21T01:49:58;76.78;;;26.98;;
39846;SDS011;25517;52.422;10.782;2023-11-21T01:52:24;77.03;;;26.15;;
39846;SDS011;25517;52.422;10.782;2023-11-21T01:54:50;82.60;;;27.35;;
39846;SDS011;25517;52.422;10.782;2023-11-21T01:57:17;64.03;;;25.20;;
39846;SDS011;25517;52.422;10.782;2023-11-21T01:59:45;81.10;;;26.85;;
39846;SDS011;25517;52.422;10.782;2023-11-21T02:02:13;69.03;;;24.90;;
39846;SDS011;25517;52.422;10.782;2023-11-21T02:04:40;58.28;;;25.00;;
39846;SDS011;25517;52.422;10.782;2023-11-21T02:07:06;78.57;;;26.55;;
39846;SDS011;25517;52.422;10.782;2023-11-21T02:09:32;54.60;;;23.23;;
39846;SDS011;25517;52.422;10.782;2023-11-21T02:12:03;76.82;;;25.48;;
39846;SDS011;25517;52.422;10.782;2023-11-21T02:14:30;53.45;;;22.30;;
39846;SDS011;25517;52.422;10.782;2023-11-21T02:16:56;53.08;;;22.23;;
39846;SDS011;25517;52.422;10.782;2023-11-21T02:19:25;50.15;;;21.73;;
39846;SDS011;25517;52.422;10.782;2023-11-21T02:21:52;52.25;;;22.90;;
39846;SDS011;25517;52.422;10.782;2023-11-21T02:24:19;58.20;;;21.90;;
39846;SDS011;25517;52.422;10.782;2023-11-21T02:26:46;51.80;;;20.30;;
39846;SDS011;25517;52.422;10.782;2023-11-21T02:29:12;51.60;;;21.02;;
39846;SDS011;25517;52.422;10.782;2023-11-21T02:31:38;51.15;;;20.60;;
39846;SDS011;25517;52.422;10.782;2023-11-21T02:34:12;53.00;;;21.35;;
39846;SDS011;25517;52.422;10.782;2023-11-21T02:36:42;43.88;;;22.50;;
39846;SDS011;25517;52.422;10.782;2023-11-21T02:39:09;45.15;;;19.67;;
39846;SDS011;25517;52.422;10.782;2023-11-21T02:41:35;45.28;;;20.35;;
39846;SDS011;25517;52.422;10.782;2023-11-21T02:44:01;51.85;;;20.77;;
39846;SDS011;25517;52.422;10.782;2023-11-21T02:46:26;42.78;;;18.95;;
39846;SDS011;25517;52.422;10.782;2023-11-21T02:48:52;49.95;;;21.45;;
39846;SDS011;25517;52.422;10.782;2023-11-21T02:51:21;47.45;;;20.70;;
39846;SDS011;25517;52.422;10.782;2023-11-21T02:53:46;49.05;;;21.27;;
39846;SDS011;25517;52.422;10.782;2023-11-21T02:56:12;53.45;;;21.13;;
39846;SDS011;25517;52.422;10.782;2023-11-21T02:58:41;49.92;;;22.02;;
39846;SDS011;25517;52.422;10.782;2023-11-21T03:03:34;58.80;;;21.42;;
39846;SDS011;25517;52.422;10.782;2023-11-21T03:06:02;46.25;;;19.30;;
39846;SDS011;25517;52.422;10.782;2023-11-21T03:08:28;41.85;;;20.55;;
39846;SDS011;25517;52.422;10.782;2023-11-21T03:10:53;50.40;;;20.92;;
39846;SDS011;25517;52.422;10.782;2023-11-21T03:13:19;48.20;;;22.85;;
39846;SDS011;25517;52.422;10.782;2023-11-21T03:15:44;41.78;;;18.83;;
39846;SDS011;25517;52.422;10.782;2023-11-21T03:18:10;44.35;;;19.65;;
39846;SDS011;25517;52.422;10.782;2023-11-21T03:20:35;53.00;;;22.10;;
39846;SDS011;25517;52.422;10.782;2023-11-21T03:23:01;48.40;;;22.20;;
39846;SDS011;25517;52.422;10.782;2023-11-21T03:25:26;47.72;;;21.52;;
39846;SDS011;25517;52.422;10.782;2023-11-21T03:27:52;56.03;;;22.27;;
39846;SDS011;25517;52.422;10.782;2023-11-21T03:30:18;47.55;;;22.50;;
39846;SDS011;25517;52.422;10.782;2023-11-21T03:32:44;42.92;;;19.38;;
39846;SDS011;25517;52.422;10.782;2023-11-21T03:35:10;45.72;;;22.77;;
39846;SDS011;25517;52.422;10.782;2023-11-21T03:37:35;60.83;;;22.25;;
39846;SDS011;25517;52.422;10.782;2023-11-21T03:40:03;50.60;;;21.25;;
39846;SDS011;25517;52.422;10.782;2023-11-21T03:42:29;54.42;;;23.60;;
39846;SDS011;25517;52.422;10.782;2023-11-21T03:44:55;42.38;;;20.48;;
39846;SDS011;25517;52.422;10.782;2023-11-21T03:47:21;55.50;;;22.73;;
39846;SDS011;25517;52.422;10.782;2023-11-21T03:49:46;49.15;;;22.15;;
39846;SDS011;25517;52.422;10.782;2023-11-21T03:52:12;53.53;;;23.33;;
39846;SDS011;25517;52.422;10.782;2023-11-21T03:54:37;51.80;;;24.08;;
39846;SDS011;25517;52.422;10.782;2023-11-21T03:57:03;46.55;;;22.48;;
39846;SDS011;25517;52.422;10.782;2023-11-21T03:59:29;53.47;;;24.45;;
39846;SDS011;25517;52.422;10.782;2023-11-21T04:01:55;52.25;;;23.70;;
39846;SDS011;25517;52.422;10.782;2023-11-21T04:04:22;50.72;;;22.05;;
39846;SDS011;25517;52.422;10.782;2023-11-21T04:06:47;52.42;;;21.65;;
39846;SDS011;25517;52.422;10.782;2023-11-21T04:09:13;61.97;;;25.35;;
39846;SDS011;25517;52.422;10.782;2023-11-21T04:11:38;62.42;;;25.52;;
39846;SDS011;25517;52.422;10.782;2023-11-21T04:14:04;59.22;;;25.33;;
39846;SDS011;25517;52.422;10.782;2023-11-21T04:16:30;54.58;;;23.23;;
39846;SDS011;25517;52.422;10.782;2023-11-21T04:18:55;58.55;;;25.23;;
39846;SDS011;25517;52.422;10.782;2023-11-21T04:21:22;50.78;;;23.40;;
39846;SDS011;25517;52.422;10.782;2023-11-21T04:23:49;57.63;;;24.33;;
39846;SDS011;25517;52.422;10.782;2023-11-21T04:26:15;47.67;;;22.50;;
39846;SDS011;25517;52.422;10.782;2023-11-21T04:28:41;58.35;;;25.52;;
39846;SDS011;25517;52.422;10.782;2023-11-21T04:31:06;60.85;;;24.50;;
39846;SDS011;25517;52.422;10.782;2023-11-21T04:33:32;56.92;;;24.35;;
39846;SDS011;25517;52.422;10.782;2023-11-21T04:35:58;49.20;;;22.10;;
39846;SDS011;25517;52.422;10.782;2023-11-21T04:38:23;53.08;;;22.45;;
39846;SDS011;25517;52.422;10.782;2023-11-21T04:40:49;41.63;;;18.08;;
39846;SDS011;25517;52.422;10.782;2023-11-21T04:43:14;23.50;;;11.48;;
39846;SDS011;25517;52.422;10.782;2023-11-21T04:45:40;18.67;;;9.40;;
39846;SDS011;25517;52.422;10.782;2023-11-21T04:48:06;13.48;;;7.50;;
39846;SDS011;25517;52.422;10.782;2023-11-21T04:50:33;11.63;;;6.57;;
39846;SDS011;25517;52.422;10.782;2023-11-21T04:52:59;9.75;;;5.78;;
39846;SDS011;25517;52.422;10.782;2023-11-21T04:55:25;10.23;;;5.97;;
39846;SDS011;25517;52.422;10.782;2023-11-21T04:57:53;9.82;;;5.82;;
39846;SDS011;25517;52.422;10.782;2023-11-21T05:00:18;9.13;;;5.00;;
39846;SDS011;25517;52.422;10.782;2023-11-21T05:02:46;9.82;;;4.88;;
39846;SDS011;25517;52.422;10.782;2023-11-21T05:05:12;10.30;;;6.00;;
39846;SDS011;25517;52.422;10.782;2023-11-21T05:07:38;11.00;;;5.70;;
39846;SDS011;25517;52.422;10.782;2023-11-21T05:10:05;9.02;;;5.28;;
39846;SDS011;25517;52.422;10.782;2023-11-21T05:12:35;8.75;;;6.07;;
39846;SDS011;25517;52.422;10.782;2023-11-21T05:15:02;9.05;;;5.68;;
39846;SDS011;25517;52.422;10.782;2023-11-21T05:17:32;9.00;;;5.47;;
39846;SDS011;25517;52.422;10.782;2023-11-21T05:19:59;11.80;;;6.57;;
39846;SDS011;25517;52.422;10.782;2023-11-21T05:22:28;9.73;;;5.82;;
39846;SDS011;25517;52.422;10.782;2023-11-21T05:24:54;13.27;;;6.40;;
39846;SDS011;25517;52.422;10.782;2023-11-21T05:27:20;11.65;;;6.35;;
39846;SDS011;25517;52.422;10.782;2023-11-21T05:29:46;11.05;;;6.90;;
39846;SDS011;25517;52.422;10.782;2023-11-21T05:32:11;21.58;;;10.73;;
39846;SDS011;25517;52.422;10.782;2023-11-21T05:34:37;20.65;;;10.77;;
39846;SDS011;25517;52.422;10.782;2023-11-21T05:37:03;20.75;;;11.63;;
39846;SDS011;25517;52.422;10.782;2023-11-21T05:39:30;28.58;;;15.25;;
39846;SDS011;25517;52.422;10.782;2023-11-21T05:41:55;25.17;;;14.50;;
39846;SDS011;25517;52.422;10.782;2023-11-21T05:44:22;25.38;;;15.10;;
39846;SDS011;25517;52.422;10.782;2023-11-21T05:46:48;26.15;;;15.70;;
39846;SDS011;25517;52.422;10.782;2023-11-21T05:49:15;31.65;;;16.42;;
39846;SDS011;25517;52.422;10.782;2023-11-21T05:51:41;31.30;;;16.13;;
39846;SDS011;25517;52.422;10.782;2023-11-21T05:54:07;29.80;;;17.08;;
39846;SDS011;25517;52.422;10.782;2023-11-21T05:56:33;33.70;;;17.00;;
39846;SDS011;25517;52.422;10.782;2023-11-21T05:58:58;33.58;;;18.15;;
39846;SDS011;25517;52.422;10.782;2023-11-21T06:01:24;34.55;;;17.48;;
39846;SDS011;25517;52.422;10.782;2023-11-21T06:03:53;32.30;;;17.52;;
39846;SDS011;25517;52.422;10.782;2023-11-21T06:06:19;34.17;;;19.00;;
39846;SDS011;25517;52.422;10.782;2023-11-21T06:08:47;36.70;;;18.92;;
39846;SDS011;25517;52.422;10.782;2023-11-21T06:11:13;35.53;;;17.95;;
39846;SDS011;25517;52.422;10.782;2023-11-21T06:13:39;36.92;;;18.45;;
39846;SDS011;25517;52.422;10.782;2023-11-21T06:16:05;31.40;;;17.50;;
39846;SDS011;25517;52.422;10.782;2023-11-21T06:18:31;34.65;;;18.90;;
39846;SDS011;25517;52.422;10.782;2023-11-21T06:20:56;35.90;;;19.13;;
39846;SDS011;25517;52.422;10.782;2023-11-21T06:23:22;35.78;;;19.25;;
39846;SDS011;25517;52.422;10.782;2023-11-21T06:25:48;34.47;;;18.65;;
39846;SDS011;25517;52.422;10.782;2023-11-21T06:28:13;44.60;;;19.75;;
39846;SDS011;25517;52.422;10.782;2023-11-21T06:30:42;42.75;;;20.25;;
39846;SDS011;25517;52.422;10.782;2023-11-21T06:33:09;44.35;;;22.02;;
39846;SDS011;25517;52.422;10.782;2023-11-21T06:35:35;42.55;;;20.73;;
39846;SDS011;25517;52.422;10.782;2023-11-21T06:38:00;36.50;;;19.33;;
39846;SDS011;25517;52.422;10.782;2023-11-21T06:40:27;42.03;;;22.35;;
39846;SDS011;25517;52.422;10.782;2023-11-21T06:42:52;44.65;;;20.65;;
39846;SDS011;25517;52.422;10.782;2023-11-21T06:45:18;34.53;;;19.50;;
39846;SDS011;25517;52.422;10.782;2023-11-21T06:47:45;43.00;;;20.27;;
39846;SDS011;25517;52.422;10.782;2023-11-21T06:50:10;37.72;;;19.65;;
39846;SDS011;25517;52.422;10.782;2023-11-21T06:52:36;41.67;;;20.65;;
39846;SDS011;25517;52.422;10.782;2023-11-21T06:55:02;38.55;;;20.42;;
39846;SDS011;25517;52.422;10.782;2023-11-21T06:57:28;36.53;;;20.30;;
39846;SDS011;25517;52.422;10.782;2023-11-21T06:59:54;32.60;;;18.38;;
39846;SDS011;25517;52.422;10.782;2023-11-21T07:02:19;37.40;;;20.17;;
39846;SDS011;25517;52.422;10.782;2023-11-21T07:04:45;31.35;;;17.63;;
39846;SDS011;25517;52.422;10.782;2023-11-21T07:07:11;33.00;;;17.88;;
39846;SDS011;25517;52.422;10.782;2023-11-21T07:09:37;36.17;;;19.23;;
39846;SDS011;25517;52.422;10.782;2023-11-21T07:12:03;37.58;;;19.10;;
39846;SDS011;25517;52.422;10.782;2023-11-21T07:14:31;34.28;;;19.52;;
39846;SDS011;25517;52.422;10.782;2023-11-21T07:16:57;36.55;;;19.33;;
39846;SDS011;25517;52.422;10.782;2023-11-21T07:19:22;35.92;;;19.35;;
39846;SDS011;25517;52.422;10.782;2023-11-21T07:21:48;39.17;;;20.58;;
39846;SDS011;25517;52.422;10.782;2023-11-21T07:24:17;39.25;;;18.80;;
39846;SDS011;25517;52.422;10.782;2023-11-21T07:26:42;31.17;;;17.15;;
39846;SDS011;25517;52.422;10.782;2023-11-21T07:29:08;29.65;;;16.27;;
39846;SDS011;25517;52.422;10.782;2023-11-21T07:31:34;27.98;;;15.50;;
39846;SDS011;25517;52.422;10.782;2023-11-21T07:33:59;25.75;;;15.35;;
39846;SDS011;25517;52.422;10.782;2023-11-21T07:36:25;27.48;;;16.15;;
39846;SDS011;25517;52.422;10.782;2023-11-21T07:38:51;25.13;;;15.82;;
39846;SDS011;25517;52.422;10.782;2023-11-21T07:41:17;20.80;;;12.13;;
39846;SDS011;25517;52.422;10.782;2023-11-21T07:43:44;23.38;;;13.27;;
39846;SDS011;25517;52.422;10.782;2023-11-21T07:46:10;20.98;;;12.82;;
39846;SDS011;25517;52.422;10.782;2023-11-21T07:48:40;20.98;;;12.77;;
39846;SDS011;25517;52.422;10.782;2023-11-21T07:51:07;25.05;;;13.77;;
39846;SDS011;25517;52.422;10.782;2023-11-21T07:53:33;19.10;;;11.32;;
39846;SDS011;25517;52.422;10.782;2023-11-21T07:56:03;18.27;;;10.75;;
39846;SDS011;25517;52.422;10.782;2023-11-21T07:58:30;15.43;;;11.05;;
39846;SDS011;25517;52.422;10.782;2023-11-21T08:00:58;19.67;;;11.43;;
39846;SDS011;25517;52.422;10.782;2023-11-21T08:03:24;22.35;;;11.73;;
39846;SDS011;25517;52.422;10.782;2023-11-21T08:05:51;20.42;;;12.63;;
39846;SDS011;25517;52.422;10.782;2023-11-21T08:08:17;16.73;;;10.38;;
39846;SDS011;25517;52.422;10.782;2023-11-21T08:10:43;18.23;;;12.43;;
39846;SDS011;25517;52.422;10.782;2023-11-21T08:13:13;21.05;;;11.35;;
39846;SDS011;25517;52.422;10.782;2023-11-21T08:15:42;17.02;;;11.45;;
39846;SDS011;25517;52.422;10.782;2023-11-21T08:18:11;18.83;;;11.48;;
39846;SDS011;25517;52.422;10.782;2023-11-21T08:20:37;15.77;;;10.07;;
39846;SDS011;25517;52.422;10.782;2023-11-21T08:23:04;15.75;;;9.55;;
39846;SDS011;25517;52.422;10.782;2023-11-21T08:25:31;15.90;;;9.95;;
39846;SDS011;25517;52.422;10.782;2023-11-21T08:27:57;17.40;;;10.23;;
39846;SDS011;25517;52.422;10.782;2023-11-21T08:30:22;14.73;;;9.88;;
39846;SDS011;25517;52.422;10.782;2023-11-21T08:32:49;14.80;;;10.05;;
39846;SDS011;25517;52.422;10.782;2023-11-21T08:35:18;17.52;;;11.45;;
39846;SDS011;25517;52.422;10.782;2023-11-21T08:37:44;18.88;;;10.70;;
39846;SDS011;25517;52.422;10.782;2023-11-21T08:40:10;15.70;;;10.15;;
39846;SDS011;25517;52.422;10.782;2023-11-21T08:42:37;17.27;;;11.05;;
39846;SDS011;25517;52.422;10.782;2023-11-21T08:45:03;14.48;;;9.80;;
39846;SDS011;25517;52.422;10.782;2023-11-21T08:47:29;18.52;;;11.00;;
39846;SDS011;25517;52.422;10.782;2023-11-21T08:49:55;16.45;;;10.00;;
39846;SDS011;25517;52.422;10.782;2023-11-21T08:52:21;15.85;;;11.30;;
39846;SDS011;25517;52.422;10.782;2023-11-21T08:54:49;15.73;;;10.48;;
39846;SDS011;25517;52.422;10.782;2023-11-21T08:57:21;17.05;;;10.65;;
39846;SDS011;25517;52.422;10.782;2023-11-21T08:59:47;16.17;;;9.98;;
39846;SDS011;25517;52.422;10.782;2023-11-21T09:02:12;15.43;;;10.35;;
39846;SDS011;25517;52.422;10.782;2023-11-21T09:04:38;17.02;;;10.73;;
39846;SDS011;25517;52.422;10.782;2023-11-21T09:07:03;15.70;;;10.00;;
39846;SDS011;25517;52.422;10.782;2023-11-21T09:09:29;15.98;;;9.80;;
39846;SDS011;25517;52.422;10.782;2023-11-21T09:11:55;15.40;;;10.48;;
39846;SDS011;25517;52.422;10.782;2023-11-21T09:14:21;14.95;;;9.90;;
39846;SDS011;25517;52.422;10.782;2023-11-21T09:16:47;15.90;;;9.98;;
39846;SDS011;25517;52.422;10.782;2023-11-21T09:19:12;15.52;;;9.32;;
39846;SDS011;25517;52.422;10.782;2023-11-21T09:21:39;15.68;;;10.57;;
39846;SDS011;25517;52.422;10.782;2023-11-21T09:24:05;14.98;;;10.35;;
39846;SDS011;25517;52.422;10.782;2023-11-21T09:26:30;14.30;;;9.73;;
39846;SDS011;25517;52.422;10.782;2023-11-21T09:28:56;11.23;;;8.38;;
39846;SDS011;25517;52.422;10.782;2023-11-21T09:31:22;14.68;;;9.95;;
39846;SDS011;25517;52.422;10.782;2023-11-21T09:33:48;13.60;;;8.60;;
39846;SDS011;25517;52.422;10.782;2023-11-21T09:36:14;12.48;;;9.05;;
39846;SDS011;25517;52.422;10.782;2023-11-21T09:38:40;13.50;;;9.07;;
39846;SDS011;25517;52.422;10.782;2023-11-21T09:41:08;12.85;;;8.60;;
39846;SDS011;25517;52.422;10.782;2023-11-21T09:43:42;14.98;;;8.65;;
39846;SDS011;25517;52.422;10.782;2023-11-21T09:46:11;14.13;;;9.25;;
39846;SDS011;25517;52.422;10.782;2023-11-21T09:48:41;10.52;;;7.80;;
39846;SDS011;25517;52.422;10.782;2023-11-21T09:51:08;12.82;;;8.98;;
39846;SDS011;25517;52.422;10.782;2023-11-21T09:53:35;13.88;;;8.70;;
39846;SDS011;25517;52.422;10.782;2023-11-21T09:56:03;13.73;;;9.50;;
39846;SDS011;25517;52.422;10.782;2023-11-21T09:58:29;14.60;;;10.02;;
39846;SDS011;25517;52.422;10.782;2023-11-21T10:00:57;15.27;;;9.20;;
39846;SDS011;25517;52.422;10.782;2023-11-21T10:03:24;11.45;;;8.43;;
39846;SDS011;25517;52.422;10.782;2023-11-21T10:05:50;13.95;;;8.20;;
39846;SDS011;25517;52.422;10.782;2023-11-21T10:08:17;13.00;;;9.27;;
39846;SDS011;25517;52.422;10.782;2023-11-21T10:10:49;16.63;;;9.27;;
39846;SDS011;25517;52.422;10.782;2023-11-21T10:13:18;11.70;;;8.18;;
39846;SDS011;25517;52.422;10.782;2023-11-21T10:15:44;14.85;;;8.40;;
39846;SDS011;25517;52.422;10.782;2023-11-21T10:18:15;11.68;;;8.23;;
39846;SDS011;25517;52.422;10.782;2023-11-21T10:20:42;16.52;;;10.18;;
39846;SDS011;25517;52.422;10.782;2023-11-21T10:23:08;15.88;;;9.05;;
39846;SDS011;25517;52.422;10.782;2023-11-21T10:25:36;16.52;;;9.32;;
39846;SDS011;25517;52.422;10.782;2023-11-21T10:28:03;14.32;;;8.80;;
39846;SDS011;25517;52.422;10.782;2023-11-21T10:30:35;14.13;;;9.48;;
39846;SDS011;25517;52.422;10.782;2023-11-21T10:33:02;14.07;;;8.73;;
39846;SDS011;25517;52.422;10.782;2023-11-21T10:35:50;14.60;;;8.98;;
39846;SDS011;25517;52.422;10.782;2023-11-21T10:38:20;11.38;;;8.05;;
39846;SDS011;25517;52.422;10.782;2023-11-21T10:40:48;12.65;;;8.30;;
39846;SDS011;25517;52.422;10.782;2023-11-21T10:43:14;10.75;;;7.75;;
39846;SDS011;25517;52.422;10.782;2023-11-21T10:45:41;9.65;;;7.28;;
39846;SDS011;25517;52.422;10.782;2023-11-21T10:48:13;11.25;;;7.72;;
39846;SDS011;25517;52.422;10.782;2023-11-21T10:50:46;10.07;;;7.55;;
39846;SDS011;25517;52.422;10.782;2023-11-21T10:53:12;12.48;;;8.32;;
39846;SDS011;25517;52.422;10.782;2023-11-21T10:55:38;11.40;;;8.60;;
39846;SDS011;25517;52.422;10.782;2023-11-21T10:58:04;14.38;;;8.13;;
39846;SDS011;25517;52.422;10.782;2023-11-21T11:00:33;12.40;;;7.90;;
39846;SDS011;25517;52.422;10.782;2023-11-21T11:02:59;12.23;;;7.55;;
39846;SDS011;25517;52.422;10.782;2023-11-21T11:05:26;10.95;;;7.55;;
39846;SDS011;25517;52.422;10.782;2023-11-21T11:08:08;12.15;;;6.55;;
39846;SDS011;25517;52.422;10.782;2023-11-21T11:10:35;10.75;;;7.18;;
39846;SDS011;25517;52.422;10.782;2023-11-21T11:13:01;9.90;;;6.60;;
39846;SDS011;25517;52.422;10.782;2023-11-21T11:15:27;9.57;;;6.72;;
39846;SDS011;25517;52.422;10.782;2023-11-21T11:17:54;9.10;;;6.80;;
39846;SDS011;25517;52.422;10.782;2023-11-21T11:20:25;9.52;;;6.90;;
39846;SDS011;25517;52.422;10.782;2023-11-21T11:28:15;10.80;;;6.25;;
39846;SDS011;25517;52.422;10.782;2023-11-21T11:30:58;9.40;;;6.10;;
39846;SDS011;25517;52.422;10.782;2023-11-21T11:33:45;8.60;;;6.65;;
39846;SDS011;25517;52.422;10.782;2023-11-21T11:38:46;8.25;;;5.80;;
39846;SDS011;25517;52.422;10.782;2023-11-21T11:41:24;9.38;;;6.15;;
39846;SDS011;25517;52.422;10.782;2023-11-21T11:43:50;9.73;;;6.20;;
39846;SDS011;25517;52.422;10.782;2023-11-21T11:46:16;9.68;;;6.32;;
39846;SDS011;25517;52.422;10.782;2023-11-21T11:48:46;8.00;;;5.63;;
39846;SDS011;25517;52.422;10.782;2023-11-21T11:51:13;8.18;;;5.43;;
39846;SDS011;25517;52.422;10.782;2023-11-21T11:53:42;7.35;;;5.30;;
39846;SDS011;25517;52.422;10.782;2023-11-21T11:56:21;6.10;;;4.93;;
39846;SDS011;25517;52.422;10.782;2023-11-21T11:58:48;7.97;;;4.88;;
39846;SDS011;25517;52.422;10.782;2023-11-21T12:01:16;10.20;;;4.93;;
39846;SDS011;25517;52.422;10.782;2023-11-21T12:03:43;6.45;;;4.72;;
39846;SDS011;25517;52.422;10.782;2023-11-21T12:06:09;8.60;;;5.47;;
39846;SDS011;25517;52.422;10.782;2023-11-21T12:08:36;10.23;;;6.18;;
39846;SDS011;25517;52.422;10.782;2023-11-21T12:11:03;7.18;;;5.30;;
39846;SDS011;25517;52.422;10.782;2023-11-21T12:13:29;7.93;;;5.28;;
39846;SDS011;25517;52.422;10.782;2023-11-21T12:15:55;7.35;;;5.30;;
39846;SDS011;25517;52.422;10.782;2023-11-21T12:18:21;7.32;;;4.20;;
39846;SDS011;25517;52.422;10.782;2023-11-21T12:20:46;5.95;;;4.68;;
39846;SDS011;25517;52.422;10.782;2023-11-21T12:23:15;6.93;;;4.80;;
39846;SDS011;25517;52.422;10.782;2023-11-21T12:25:42;6.60;;;4.00;;
39846;SDS011;25517;52.422;10.782;2023-11-21T12:28:08;6.97;;;5.07;;
39846;SDS011;25517;52.422;10.782;2023-11-21T12:30:34;7.82;;;4.55;;
39846;SDS011;25517;52.422;10.782;2023-11-21T12:33:01;5.68;;;4.65;;
39846;SDS011;25517;52.422;10.782;2023-11-21T12:35:31;6.85;;;4.57;;
39846;SDS011;25517;52.422;10.782;2023-11-21T12:38:00;7.43;;;4.82;;
39846;SDS011;25517;52.422;10.782;2023-11-21T12:40:29;6.80;;;4.63;;
39846;SDS011;25517;52.422;10.782;2023-11-21T12:42:56;8.10;;;4.15;;
39846;SDS011;25517;52.422;10.782;2023-11-21T12:45:24;7.72;;;4.65;;
39846;SDS011;25517;52.422;10.782;2023-11-21T12:47:55;6.68;;;4.38;;
39846;SDS011;25517;52.422;10.782;2023-11-21T12:50:25;8.63;;;5.28;;
39846;SDS011;25517;52.422;10.782;2023-11-21T12:52:54;6.20;;;4.85;;
39846;SDS011;25517;52.422;10.782;2023-11-21T12:55:24;7.60;;;4.88;;
39846;SDS011;25517;52.422;10.782;2023-11-21T12:57:51;7.80;;;5.18;;
39846;SDS011;25517;52.422;10.782;2023-11-21T13:00:19;6.65;;;4.45;;
39846;SDS011;25517;52.422;10.782;2023-11-21T13:02:55;7.55;;;4.93;;
39846;SDS011;25517;52.422;10.782;2023-11-21T13:05:26;6.05;;;4.28;;
39846;SDS011;25517;52.422;10.782;2023-11-21T13:07:53;7.00;;;4.57;;
39846;SDS011;25517;52.422;10.782;2023-11-21T13:10:26;5.05;;;3.70;;
39846;SDS011;25517;52.422;10.782;2023-11-21T13:12:59;6.97;;;4.00;;
39846;SDS011;25517;52.422;10.782;2023-11-21T13:15:26;7.93;;;4.50;;
39846;SDS011;25517;52.422;10.782;2023-11-21T13:17:52;7.53;;;4.65;;
39846;SDS011;25517;52.422;10.782;2023-11-21T13:20:22;7.43;;;4.95;;
39846;SDS011;25517;52.422;10.782;2023-11-21T13:22:52;5.28;;;4.38;;
39846;SDS011;25517;52.422;10.782;2023-11-21T13:25:22;8.38;;;4.75;;
39846;SDS011;25517;52.422;10.782;2023-11-21T13:27:55;6.07;;;4.97;;
39846;SDS011;25517;52.422;10.782;2023-11-21T13:30:22;7.63;;;4.50;;
39846;SDS011;25517;52.422;10.782;2023-11-21T13:32:52;7.87;;;4.30;;
39846;SDS011;25517;52.422;10.782;2023-11-21T13:35:27;6.72;;;4.65;;
39846;SDS011;25517;52.422;10.782;2023-11-21T13:38:05;6.57;;;4.10;;
39846;SDS011;25517;52.422;10.782;2023-11-21T13:40:35;7.07;;;4.45;;
39846;SDS011;25517;52.422;10.782;2023-11-21T13:43:09;7.47;;;4.05;;
39846;SDS011;25517;52.422;10.782;2023-11-21T13:45:36;7.47;;;4.20;;
39846;SDS011;25517;52.422;10.782;2023-11-21T13:48:03;6.32;;;4.25;;
39846;SDS011;25517;52.422;10.782;2023-11-21T13:50:32;8.45;;;4.55;;
39846;SDS011;25517;52.422;10.782;2023-11-21T13:52:59;6.50;;;4.70;;
39846;SDS011;25517;52.422;10.782;2023-11-21T13:55:34;6.57;;;3.97;;
39846;SDS011;25517;52.422;10.782;2023-11-21T13:58:01;6.70;;;4.55;;
39846;SDS011;25517;52.422;10.782;2023-11-21T14:00:29;5.80;;;4.30;;
39846;SDS011;25517;52.422;10.782;2023-11-21T14:03:06;5.82;;;4.00;;
39846;SDS011;25517;52.422;10.782;2023-11-21T14:05:41;6.30;;;4.68;;
39846;SDS011;25517;52.422;10.782;2023-11-21T14:08:08;4.97;;;3.88;;
39846;SDS011;25517;52.422;10.782;2023-11-21T14:10:36;5.28;;;3.90;;
39846;SDS011;25517;52.422;10.782;2023-11-21T14:13:08;5.50;;;4.43;;
39846;SDS011;25517;52.422;10.782;2023-11-21T14:15:38;7.25;;;4.72;;
39846;SDS011;25517;52.422;10.782;2023-11-21T14:20:38;5.78;;;4.22;;
39846;SDS011;25517;52.422;10.782;2023-11-21T14:23:05;8.70;;;4.30;;
39846;SDS011;25517;52.422;10.782;2023-11-21T14:25:34;5.70;;;4.03;;
39846;SDS011;25517;52.422;10.782;2023-11-21T14:28:07;5.95;;;3.97;;